sensor_id;sensor_type;location;lat;lon;timestamp;P1;durP1;ratioP1;P2;durP2;ratioP2
50968;SDS011;36982;51.474;7.228;2023-07-13T00:00:24;1.90;;;1.30;;
50968;SDS011;36982;51.474;7.228;2023-07-13T00:02:50;4.78;;;1.70;;
50968;SDS011;36982;51.474;7.228;2023-07-13T00:05:18;3.20;;;1.50;;
50968;SDS011;36982;51.474;7.228;2023-07-13T00:07:45;3.80;;;1.50;;
50968;SDS011;36982;51.474;7.228;2023-07-13T00:10:11;3.33;;;1.35;;
50968;SDS011;36982;51.474;7.228;2023-07-13T00:12:37;5.97;;;1.40;;
50968;SDS011;36982;51.474;7.228;2023-07-13T00:15:05;3.70;;;1.92;;
50968;SDS011;36982;51.474;7.228;2023-07-13T00:17:41;3.37;;;1.70;;
50968;SDS011;36982;51.474;7.228;2023-07-13T00:20:09;5.13;;;1.70;;
50968;SDS011;36982;51.474;7.228;2023-07-13T00:22:36;6.37;;;1.80;;
50968;SDS011;36982;51.474;7.228;2023-07-13T00:25:02;5.95;;;1.87;;
50968;SDS011;36982;51.474;7.228;2023-07-13T00:27:28;4.97;;;1.58;;
50968;SDS011;36982;51.474;7.228;2023-07-13T00:29:56;3.77;;;1.40;;
50968;SDS011;36982;51.474;7.228;2023-07-13T00:32:25;2.77;;;1.90;;
50968;SDS011;36982;51.474;7.228;2023-07-13T00:34:51;3.00;;;1.33;;
50968;SDS011;36982;51.474;7.228;2023-07-13T00:37:17;4.80;;;1.70;;
50968;SDS011;36982;51.474;7.228;2023-07-13T00:39:43;3.77;;;1.43;;
50968;SDS011;36982;51.474;7.228;2023-07-13T00:42:08;4.70;;;1.87;;
50968;SDS011;36982;51.474;7.228;2023-07-13T00:44:34;6.20;;;1.90;;
50968;SDS011;36982;51.474;7.228;2023-07-13T00:47:00;6.10;;;1.87;;
50968;SDS011;36982;51.474;7.228;2023-07-13T00:49:27;7.07;;;2.00;;
50968;SDS011;36982;51.474;7.228;2023-07-13T00:51:59;6.67;;;2.60;;
50968;SDS011;36982;51.474;7.228;2023-07-13T00:54:34;8.60;;;2.43;;
50968;SDS011;36982;51.474;7.228;2023-07-13T00:57:04;4.83;;;1.80;;
50968;SDS011;36982;51.474;7.228;2023-07-13T00:59:33;5.43;;;2.23;;
50968;SDS011;36982;51.474;7.228;2023-07-13T01:02:01;3.07;;;1.53;;
50968;SDS011;36982;51.474;7.228;2023-07-13T01:04:28;3.63;;;1.40;;
50968;SDS011;36982;51.474;7.228;2023-07-13T01:06:54;3.40;;;1.30;;
50968;SDS011;36982;51.474;7.228;2023-07-13T01:09:20;3.50;;;1.53;;
50968;SDS011;36982;51.474;7.228;2023-07-13T01:11:46;3.53;;;1.30;;
50968;SDS011;36982;51.474;7.228;2023-07-13T01:14:12;2.13;;;1.70;;
50968;SDS011;36982;51.474;7.228;2023-07-13T01:16:39;3.33;;;0.97;;
50968;SDS011;36982;51.474;7.228;2023-07-13T01:19:12;3.47;;;1.43;;
50968;SDS011;36982;51.474;7.228;2023-07-13T01:21:49;3.43;;;1.40;;
50968;SDS011;36982;51.474;7.228;2023-07-13T01:24:15;3.37;;;1.30;;
50968;SDS011;36982;51.474;7.228;2023-07-13T01:26:41;5.53;;;1.57;;
50968;SDS011;36982;51.474;7.228;2023-07-13T01:29:07;3.53;;;1.40;;
50968;SDS011;36982;51.474;7.228;2023-07-13T01:31:33;3.10;;;1.37;;
50968;SDS011;36982;51.474;7.228;2023-07-13T01:33:58;2.37;;;1.10;;
50968;SDS011;36982;51.474;7.228;2023-07-13T01:36:24;5.63;;;1.70;;
50968;SDS011;36982;51.474;7.228;2023-07-13T01:38:50;3.30;;;1.40;;
50968;SDS011;36982;51.474;7.228;2023-07-13T01:41:16;2.17;;;1.20;;
50968;SDS011;36982;51.474;7.228;2023-07-13T01:43:41;2.23;;;1.10;;
50968;SDS011;36982;51.474;7.228;2023-07-13T01:46:07;6.60;;;1.53;;
50968;SDS011;36982;51.474;7.228;2023-07-13T01:48:33;3.53;;;1.37;;
50968;SDS011;36982;51.474;7.228;2023-07-13T01:50:58;4.63;;;1.40;;
50968;SDS011;36982;51.474;7.228;2023-07-13T01:53:24;3.20;;;1.27;;
50968;SDS011;36982;51.474;7.228;2023-07-13T01:55:50;3.70;;;1.53;;
50968;SDS011;36982;51.474;7.228;2023-07-13T01:58:15;5.70;;;1.67;;
50968;SDS011;36982;51.474;7.228;2023-07-13T02:00:41;2.37;;;1.20;;
50968;SDS011;36982;51.474;7.228;2023-07-13T02:03:06;4.23;;;1.23;;
50968;SDS011;36982;51.474;7.228;2023-07-13T02:05:32;3.03;;;1.23;;
50968;SDS011;36982;51.474;7.228;2023-07-13T02:07:57;3.60;;;1.13;;
50968;SDS011;36982;51.474;7.228;2023-07-13T02:10:24;2.97;;;1.00;;
50968;SDS011;36982;51.474;7.228;2023-07-13T02:12:50;2.30;;;1.33;;
50968;SDS011;36982;51.474;7.228;2023-07-13T02:15:16;4.70;;;1.80;;
50968;SDS011;36982;51.474;7.228;2023-07-13T02:17:42;3.43;;;1.20;;
50968;SDS011;36982;51.474;7.228;2023-07-13T02:20:08;6.13;;;1.77;;
50968;SDS011;36982;51.474;7.228;2023-07-13T02:22:34;2.33;;;1.20;;
50968;SDS011;36982;51.474;7.228;2023-07-13T02:25:00;4.43;;;1.43;;
50968;SDS011;36982;51.474;7.228;2023-07-13T02:27:26;4.73;;;1.30;;
50968;SDS011;36982;51.474;7.228;2023-07-13T02:29:52;8.67;;;1.77;;
50968;SDS011;36982;51.474;7.228;2023-07-13T02:32:18;3.97;;;1.33;;
50968;SDS011;36982;51.474;7.228;2023-07-13T02:34:44;4.43;;;1.17;;
50968;SDS011;36982;51.474;7.228;2023-07-13T02:37:10;4.70;;;1.47;;
50968;SDS011;36982;51.474;7.228;2023-07-13T02:39:35;3.73;;;1.27;;
50968;SDS011;36982;51.474;7.228;2023-07-13T02:42:01;2.30;;;1.20;;
50968;SDS011;36982;51.474;7.228;2023-07-13T02:44:27;5.23;;;1.53;;
50968;SDS011;36982;51.474;7.228;2023-07-13T02:46:53;3.30;;;1.10;;
50968;SDS011;36982;51.474;7.228;2023-07-13T02:49:18;5.30;;;1.33;;
50968;SDS011;36982;51.474;7.228;2023-07-13T02:51:44;3.77;;;1.37;;
50968;SDS011;36982;51.474;7.228;2023-07-13T02:54:09;5.50;;;1.60;;
50968;SDS011;36982;51.474;7.228;2023-07-13T02:56:36;5.10;;;1.47;;
50968;SDS011;36982;51.474;7.228;2023-07-13T02:59:04;6.67;;;1.53;;
50968;SDS011;36982;51.474;7.228;2023-07-13T03:01:29;4.67;;;1.37;;
50968;SDS011;36982;51.474;7.228;2023-07-13T03:03:55;6.47;;;1.77;;
50968;SDS011;36982;51.474;7.228;2023-07-13T03:06:21;3.90;;;1.40;;
50968;SDS011;36982;51.474;7.228;2023-07-13T03:08:47;5.33;;;1.70;;
50968;SDS011;36982;51.474;7.228;2023-07-13T03:11:14;4.37;;;1.20;;
50968;SDS011;36982;51.474;7.228;2023-07-13T03:13:42;6.57;;;1.70;;
50968;SDS011;36982;51.474;7.228;2023-07-13T03:16:08;5.03;;;1.40;;
50968;SDS011;36982;51.474;7.228;2023-07-13T03:18:35;3.93;;;1.30;;
50968;SDS011;36982;51.474;7.228;2023-07-13T03:21:01;5.23;;;1.67;;
50968;SDS011;36982;51.474;7.228;2023-07-13T03:23:27;3.37;;;1.40;;
50968;SDS011;36982;51.474;7.228;2023-07-13T03:28:28;2.80;;;1.43;;
50968;SDS011;36982;51.474;7.228;2023-07-13T03:31:00;4.03;;;1.50;;
50968;SDS011;36982;51.474;7.228;2023-07-13T03:33:27;3.93;;;1.50;;
50968;SDS011;36982;51.474;7.228;2023-07-13T03:35:53;4.97;;;1.30;;
50968;SDS011;36982;51.474;7.228;2023-07-13T03:38:18;7.97;;;1.40;;
50968;SDS011;36982;51.474;7.228;2023-07-13T03:40:44;6.17;;;1.40;;
50968;SDS011;36982;51.474;7.228;2023-07-13T03:43:10;5.97;;;1.20;;
50968;SDS011;36982;51.474;7.228;2023-07-13T03:45:37;3.90;;;1.70;;
50968;SDS011;36982;51.474;7.228;2023-07-13T03:48:03;5.70;;;1.73;;
50968;SDS011;36982;51.474;7.228;2023-07-13T03:50:30;4.47;;;1.40;;
50968;SDS011;36982;51.474;7.228;2023-07-13T03:52:56;3.07;;;1.40;;
50968;SDS011;36982;51.474;7.228;2023-07-13T03:55:23;3.23;;;1.60;;
50968;SDS011;36982;51.474;7.228;2023-07-13T03:57:53;3.40;;;1.53;;
50968;SDS011;36982;51.474;7.228;2023-07-13T04:00:23;6.17;;;1.63;;
50968;SDS011;36982;51.474;7.228;2023-07-13T04:02:49;3.83;;;1.70;;
50968;SDS011;36982;51.474;7.228;2023-07-13T04:05:16;4.13;;;1.50;;
50968;SDS011;36982;51.474;7.228;2023-07-13T04:07:41;5.30;;;1.50;;
50968;SDS011;36982;51.474;7.228;2023-07-13T04:10:07;4.87;;;2.47;;
50968;SDS011;36982;51.474;7.228;2023-07-13T04:12:33;4.93;;;1.63;;
50968;SDS011;36982;51.474;7.228;2023-07-13T04:14:59;4.90;;;1.50;;
50968;SDS011;36982;51.474;7.228;2023-07-13T04:17:24;2.27;;;1.40;;
50968;SDS011;36982;51.474;7.228;2023-07-13T04:19:50;6.10;;;1.67;;
50968;SDS011;36982;51.474;7.228;2023-07-13T04:22:15;5.50;;;1.50;;
50968;SDS011;36982;51.474;7.228;2023-07-13T04:24:41;3.30;;;1.30;;
50968;SDS011;36982;51.474;7.228;2023-07-13T04:27:07;7.27;;;1.30;;
50968;SDS011;36982;51.474;7.228;2023-07-13T04:29:32;4.30;;;1.50;;
50968;SDS011;36982;51.474;7.228;2023-07-13T04:31:58;6.37;;;1.70;;
50968;SDS011;36982;51.474;7.228;2023-07-13T04:34:24;5.60;;;1.60;;
50968;SDS011;36982;51.474;7.228;2023-07-13T04:36:49;4.33;;;1.90;;
50968;SDS011;36982;51.474;7.228;2023-07-13T04:39:15;5.77;;;1.43;;
50968;SDS011;36982;51.474;7.228;2023-07-13T04:41:41;3.50;;;1.23;;
50968;SDS011;36982;51.474;7.228;2023-07-13T04:44:07;3.83;;;1.50;;
50968;SDS011;36982;51.474;7.228;2023-07-13T04:46:32;3.30;;;1.50;;
50968;SDS011;36982;51.474;7.228;2023-07-13T04:48:58;3.00;;;1.47;;
50968;SDS011;36982;51.474;7.228;2023-07-13T04:51:24;3.97;;;1.50;;
50968;SDS011;36982;51.474;7.228;2023-07-13T04:53:50;8.33;;;4.03;;
50968;SDS011;36982;51.474;7.228;2023-07-13T04:56:15;9.57;;;4.10;;
50968;SDS011;36982;51.474;7.228;2023-07-13T04:58:41;6.10;;;3.17;;
50968;SDS011;36982;51.474;7.228;2023-07-13T05:01:06;6.03;;;2.17;;
50968;SDS011;36982;51.474;7.228;2023-07-13T05:03:33;5.43;;;1.60;;
50968;SDS011;36982;51.474;7.228;2023-07-13T05:06:00;3.87;;;1.40;;
50968;SDS011;36982;51.474;7.228;2023-07-13T05:08:27;3.90;;;1.50;;
50968;SDS011;36982;51.474;7.228;2023-07-13T05:10:53;5.55;;;2.00;;
50968;SDS011;36982;51.474;7.228;2023-07-13T05:13:19;6.77;;;2.47;;
50968;SDS011;36982;51.474;7.228;2023-07-13T05:15:45;5.93;;;2.00;;
50968;SDS011;36982;51.474;7.228;2023-07-13T05:18:12;5.07;;;1.93;;
50968;SDS011;36982;51.474;7.228;2023-07-13T05:20:37;7.00;;;1.50;;
50968;SDS011;36982;51.474;7.228;2023-07-13T05:23:03;4.75;;;1.33;;
50968;SDS011;36982;51.474;7.228;2023-07-13T05:25:29;4.87;;;1.73;;
50968;SDS011;36982;51.474;7.228;2023-07-13T05:27:54;6.47;;;1.80;;
50968;SDS011;36982;51.474;7.228;2023-07-13T05:30:20;7.00;;;1.53;;
50968;SDS011;36982;51.474;7.228;2023-07-13T05:32:46;6.43;;;1.65;;
50968;SDS011;36982;51.474;7.228;2023-07-13T05:35:11;4.00;;;1.77;;
50968;SDS011;36982;51.474;7.228;2023-07-13T05:37:37;6.15;;;2.20;;
50968;SDS011;36982;51.474;7.228;2023-07-13T05:40:03;4.05;;;1.50;;
50968;SDS011;36982;51.474;7.228;2023-07-13T05:42:29;4.03;;;1.50;;
50968;SDS011;36982;51.474;7.228;2023-07-13T05:44:56;6.10;;;2.00;;
50968;SDS011;36982;51.474;7.228;2023-07-13T05:47:22;6.30;;;1.87;;
50968;SDS011;36982;51.474;7.228;2023-07-13T05:49:47;8.23;;;1.90;;
50968;SDS011;36982;51.474;7.228;2023-07-13T05:52:13;6.65;;;1.75;;
50968;SDS011;36982;51.474;7.228;2023-07-13T05:54:39;7.05;;;1.77;;
50968;SDS011;36982;51.474;7.228;2023-07-13T05:57:04;4.55;;;1.83;;
50968;SDS011;36982;51.474;7.228;2023-07-13T05:59:30;6.07;;;1.85;;
50968;SDS011;36982;51.474;7.228;2023-07-13T06:01:56;5.03;;;2.00;;
50968;SDS011;36982;51.474;7.228;2023-07-13T06:04:21;8.50;;;1.83;;
50968;SDS011;36982;51.474;7.228;2023-07-13T06:06:47;4.60;;;2.15;;
50968;SDS011;36982;51.474;7.228;2023-07-13T06:09:13;6.75;;;2.03;;
50968;SDS011;36982;51.474;7.228;2023-07-13T06:11:38;10.77;;;3.10;;
50968;SDS011;36982;51.474;7.228;2023-07-13T06:14:04;4.82;;;1.67;;
50968;SDS011;36982;51.474;7.228;2023-07-13T06:16:29;4.30;;;1.92;;
50968;SDS011;36982;51.474;7.228;2023-07-13T06:18:55;8.40;;;2.12;;
50968;SDS011;36982;51.474;7.228;2023-07-13T06:21:22;10.23;;;2.30;;
50968;SDS011;36982;51.474;7.228;2023-07-13T06:23:49;5.22;;;2.17;;
50968;SDS011;36982;51.474;7.228;2023-07-13T06:26:16;5.35;;;1.55;;
50968;SDS011;36982;51.474;7.228;2023-07-13T06:28:43;9.73;;;2.30;;
50968;SDS011;36982;51.474;7.228;2023-07-13T06:31:09;7.53;;;2.00;;
50968;SDS011;36982;51.474;7.228;2023-07-13T06:33:36;8.57;;;2.37;;
50968;SDS011;36982;51.474;7.228;2023-07-13T06:36:03;4.47;;;1.65;;
50968;SDS011;36982;51.474;7.228;2023-07-13T06:38:30;9.07;;;2.22;;
50968;SDS011;36982;51.474;7.228;2023-07-13T06:40:55;7.35;;;2.20;;
50968;SDS011;36982;51.474;7.228;2023-07-13T06:43:21;8.43;;;2.17;;
50968;SDS011;36982;51.474;7.228;2023-07-13T06:45:47;5.50;;;2.10;;
50968;SDS011;36982;51.474;7.228;2023-07-13T06:48:18;9.68;;;2.28;;
50968;SDS011;36982;51.474;7.228;2023-07-13T06:50:44;7.37;;;1.95;;
50968;SDS011;36982;51.474;7.228;2023-07-13T06:53:11;4.93;;;2.03;;
50968;SDS011;36982;51.474;7.228;2023-07-13T06:55:37;8.20;;;2.62;;
50968;SDS011;36982;51.474;7.228;2023-07-13T06:58:03;6.85;;;2.30;;
50968;SDS011;36982;51.474;7.228;2023-07-13T07:00:29;5.75;;;2.10;;
50968;SDS011;36982;51.474;7.228;2023-07-13T07:02:54;6.80;;;1.92;;
50968;SDS011;36982;51.474;7.228;2023-07-13T07:05:20;7.55;;;3.15;;
50968;SDS011;36982;51.474;7.228;2023-07-13T07:07:47;6.43;;;2.20;;
50968;SDS011;36982;51.474;7.228;2023-07-13T07:10:16;8.98;;;2.17;;
50968;SDS011;36982;51.474;7.228;2023-07-13T07:12:42;8.50;;;2.50;;
50968;SDS011;36982;51.474;7.228;2023-07-13T07:15:08;8.93;;;2.78;;
50968;SDS011;36982;51.474;7.228;2023-07-13T07:17:34;8.98;;;2.25;;
50968;SDS011;36982;51.474;7.228;2023-07-13T07:19:59;8.45;;;3.10;;
50968;SDS011;36982;51.474;7.228;2023-07-13T07:22:25;6.47;;;2.00;;
50968;SDS011;36982;51.474;7.228;2023-07-13T07:24:52;8.63;;;2.40;;
50968;SDS011;36982;51.474;7.228;2023-07-13T07:27:18;6.07;;;2.17;;
50968;SDS011;36982;51.474;7.228;2023-07-13T07:29:44;5.25;;;2.25;;
50968;SDS011;36982;51.474;7.228;2023-07-13T07:32:10;5.18;;;2.05;;
50968;SDS011;36982;51.474;7.228;2023-07-13T07:34:35;5.90;;;2.25;;
50968;SDS011;36982;51.474;7.228;2023-07-13T07:37:01;7.65;;;2.33;;
50968;SDS011;36982;51.474;7.228;2023-07-13T07:39:27;7.30;;;2.50;;
50968;SDS011;36982;51.474;7.228;2023-07-13T07:41:53;8.07;;;2.55;;
50968;SDS011;36982;51.474;7.228;2023-07-13T07:44:19;6.05;;;2.30;;
50968;SDS011;36982;51.474;7.228;2023-07-13T07:46:44;6.53;;;2.33;;
50968;SDS011;36982;51.474;7.228;2023-07-13T07:49:10;6.37;;;2.22;;
50968;SDS011;36982;51.474;7.228;2023-07-13T07:51:36;5.65;;;2.22;;
50968;SDS011;36982;51.474;7.228;2023-07-13T07:54:02;4.20;;;2.03;;
50968;SDS011;36982;51.474;7.228;2023-07-13T07:56:29;7.90;;;1.95;;
50968;SDS011;36982;51.474;7.228;2023-07-13T07:58:55;5.37;;;2.03;;
50968;SDS011;36982;51.474;7.228;2023-07-13T08:01:20;8.45;;;2.00;;
50968;SDS011;36982;51.474;7.228;2023-07-13T08:03:46;8.32;;;2.35;;
50968;SDS011;36982;51.474;7.228;2023-07-13T08:06:12;6.12;;;2.40;;
50968;SDS011;36982;51.474;7.228;2023-07-13T08:08:38;6.15;;;2.08;;
50968;SDS011;36982;51.474;7.228;2023-07-13T08:11:04;5.25;;;2.20;;
50968;SDS011;36982;51.474;7.228;2023-07-13T08:13:31;8.30;;;2.53;;
50968;SDS011;36982;51.474;7.228;2023-07-13T08:15:56;5.37;;;2.10;;
50968;SDS011;36982;51.474;7.228;2023-07-13T08:18:22;8.27;;;2.30;;
50968;SDS011;36982;51.474;7.228;2023-07-13T08:20:47;8.55;;;2.65;;
50968;SDS011;36982;51.474;7.228;2023-07-13T08:23:13;5.50;;;2.10;;
50968;SDS011;36982;51.474;7.228;2023-07-13T08:25:38;6.78;;;2.17;;
50968;SDS011;36982;51.474;7.228;2023-07-13T08:28:04;5.43;;;2.15;;
50968;SDS011;36982;51.474;7.228;2023-07-13T08:30:30;6.10;;;2.25;;
50968;SDS011;36982;51.474;7.228;2023-07-13T08:32:55;6.35;;;2.83;;
50968;SDS011;36982;51.474;7.228;2023-07-13T08:35:22;9.60;;;2.50;;
50968;SDS011;36982;51.474;7.228;2023-07-13T08:37:47;4.50;;;2.10;;
50968;SDS011;36982;51.474;7.228;2023-07-13T08:40:13;9.13;;;2.97;;
50968;SDS011;36982;51.474;7.228;2023-07-13T08:42:40;4.18;;;2.42;;
50968;SDS011;36982;51.474;7.228;2023-07-13T08:45:17;6.25;;;2.53;;
50968;SDS011;36982;51.474;7.228;2023-07-13T08:47:59;10.35;;;2.67;;
50968;SDS011;36982;51.474;7.228;2023-07-13T08:50:31;6.95;;;3.03;;
50968;SDS011;36982;51.474;7.228;2023-07-13T08:53:00;10.13;;;3.03;;
50968;SDS011;36982;51.474;7.228;2023-07-13T08:55:29;5.87;;;3.10;;
50968;SDS011;36982;51.474;7.228;2023-07-13T08:58:03;7.45;;;2.42;;
50968;SDS011;36982;51.474;7.228;2023-07-13T09:00:41;5.60;;;2.28;;
50968;SDS011;36982;51.474;7.228;2023-07-13T09:03:43;6.10;;;2.37;;
50968;SDS011;36982;51.474;7.228;2023-07-13T09:06:16;5.50;;;2.40;;
50968;SDS011;36982;51.474;7.228;2023-07-13T09:08:46;5.95;;;2.67;;
50968;SDS011;36982;51.474;7.228;2023-07-13T09:14:00;6.68;;;2.65;;
50968;SDS011;36982;51.474;7.228;2023-07-13T09:16:46;5.97;;;2.22;;
50968;SDS011;36982;51.474;7.228;2023-07-13T09:19:16;3.92;;;1.80;;
50968;SDS011;36982;51.474;7.228;2023-07-13T09:22:04;4.47;;;2.10;;
50968;SDS011;36982;51.474;7.228;2023-07-13T09:27:30;4.80;;;2.00;;
50968;SDS011;36982;51.474;7.228;2023-07-13T09:30:11;4.93;;;2.20;;
50968;SDS011;36982;51.474;7.228;2023-07-13T09:32:50;7.07;;;2.62;;
50968;SDS011;36982;51.474;7.228;2023-07-13T09:35:21;7.87;;;2.87;;
50968;SDS011;36982;51.474;7.228;2023-07-13T09:37:49;6.25;;;2.37;;
50968;SDS011;36982;51.474;7.228;2023-07-13T09:40:25;5.62;;;2.40;;
50968;SDS011;36982;51.474;7.228;2023-07-13T09:43:19;5.10;;;2.03;;
50968;SDS011;36982;51.474;7.228;2023-07-13T09:45:46;8.98;;;2.20;;
50968;SDS011;36982;51.474;7.228;2023-07-13T09:48:13;6.22;;;2.40;;
50968;SDS011;36982;51.474;7.228;2023-07-13T09:50:40;6.82;;;2.35;;
50968;SDS011;36982;51.474;7.228;2023-07-13T09:53:14;6.47;;;2.08;;
50968;SDS011;36982;51.474;7.228;2023-07-13T09:55:42;6.15;;;2.22;;
50968;SDS011;36982;51.474;7.228;2023-07-13T10:00:39;6.55;;;2.20;;
50968;SDS011;36982;51.474;7.228;2023-07-13T10:03:20;5.50;;;2.22;;
50968;SDS011;36982;51.474;7.228;2023-07-13T10:05:49;7.30;;;2.30;;
50968;SDS011;36982;51.474;7.228;2023-07-13T10:10:51;7.93;;;2.42;;
50968;SDS011;36982;51.474;7.228;2023-07-13T10:13:42;6.80;;;2.37;;
50968;SDS011;36982;51.474;7.228;2023-07-13T10:16:15;6.30;;;2.37;;
50968;SDS011;36982;51.474;7.228;2023-07-13T10:18:57;5.80;;;2.30;;
50968;SDS011;36982;51.474;7.228;2023-07-13T10:21:27;10.35;;;4.65;;
50968;SDS011;36982;51.474;7.228;2023-07-13T10:24:00;5.40;;;2.20;;
50968;SDS011;36982;51.474;7.228;2023-07-13T10:26:36;7.18;;;2.00;;
50968;SDS011;36982;51.474;7.228;2023-07-13T10:29:09;8.23;;;2.47;;
50968;SDS011;36982;51.474;7.228;2023-07-13T10:31:39;8.23;;;3.85;;
50968;SDS011;36982;51.474;7.228;2023-07-13T10:34:09;6.05;;;2.10;;
50968;SDS011;36982;51.474;7.228;2023-07-13T10:36:39;6.97;;;2.30;;
50968;SDS011;36982;51.474;7.228;2023-07-13T10:39:09;5.97;;;2.20;;
50968;SDS011;36982;51.474;7.228;2023-07-13T10:41:44;5.57;;;2.80;;
50968;SDS011;36982;51.474;7.228;2023-07-13T10:44:17;7.05;;;2.75;;
50968;SDS011;36982;51.474;7.228;2023-07-13T10:46:46;5.30;;;2.47;;
50968;SDS011;36982;51.474;7.228;2023-07-13T10:49:13;5.28;;;2.28;;
50968;SDS011;36982;51.474;7.228;2023-07-13T10:51:39;5.10;;;2.00;;
50968;SDS011;36982;51.474;7.228;2023-07-13T10:56:38;7.78;;;2.10;;
50968;SDS011;36982;51.474;7.228;2023-07-13T11:04:21;6.80;;;1.98;;
50968;SDS011;36982;51.474;7.228;2023-07-13T11:06:50;4.62;;;2.15;;
50968;SDS011;36982;51.474;7.228;2023-07-13T11:09:37;5.68;;;2.40;;
50968;SDS011;36982;51.474;7.228;2023-07-13T11:22:41;5.18;;;2.83;;
50968;SDS011;36982;51.474;7.228;2023-07-13T11:25:29;6.03;;;2.35;;
50968;SDS011;36982;51.474;7.228;2023-07-13T11:30:37;5.12;;;2.22;;
50968;SDS011;36982;51.474;7.228;2023-07-13T11:33:22;6.28;;;2.35;;
50968;SDS011;36982;51.474;7.228;2023-07-13T11:36:14;4.62;;;2.35;;
50968;SDS011;36982;51.474;7.228;2023-07-13T11:38:43;4.20;;;1.70;;
50968;SDS011;36982;51.474;7.228;2023-07-13T11:41:15;10.63;;;2.50;;
50968;SDS011;36982;51.474;7.228;2023-07-13T11:43:53;7.20;;;3.20;;
50968;SDS011;36982;51.474;7.228;2023-07-13T11:46:21;4.45;;;2.53;;
50968;SDS011;36982;51.474;7.228;2023-07-13T11:48:49;5.90;;;1.90;;
50968;SDS011;36982;51.474;7.228;2023-07-13T11:51:22;4.05;;;2.33;;
50968;SDS011;36982;51.474;7.228;2023-07-13T11:53:53;5.10;;;2.10;;
50968;SDS011;36982;51.474;7.228;2023-07-13T11:56:20;5.72;;;2.90;;
50968;SDS011;36982;51.474;7.228;2023-07-13T11:58:54;8.10;;;1.98;;
50968;SDS011;36982;51.474;7.228;2023-07-13T12:01:22;4.62;;;2.12;;
50968;SDS011;36982;51.474;7.228;2023-07-13T12:03:52;4.55;;;1.55;;
50968;SDS011;36982;51.474;7.228;2023-07-13T12:06:24;5.43;;;2.30;;
50968;SDS011;36982;51.474;7.228;2023-07-13T12:08:55;3.35;;;1.55;;
50968;SDS011;36982;51.474;7.228;2023-07-13T12:11:22;3.72;;;1.60;;
50968;SDS011;36982;51.474;7.228;2023-07-13T12:13:48;5.85;;;1.98;;
50968;SDS011;36982;51.474;7.228;2023-07-13T12:16:23;9.13;;;2.72;;
50968;SDS011;36982;51.474;7.228;2023-07-13T12:18:53;3.75;;;1.73;;
50968;SDS011;36982;51.474;7.228;2023-07-13T12:21:19;12.27;;;9.00;;
50968;SDS011;36982;51.474;7.228;2023-07-13T12:23:47;6.05;;;2.33;;
50968;SDS011;36982;51.474;7.228;2023-07-13T12:26:14;7.80;;;3.28;;
50968;SDS011;36982;51.474;7.228;2023-07-13T12:28:45;3.85;;;1.85;;
50968;SDS011;36982;51.474;7.228;2023-07-13T12:31:35;3.15;;;1.60;;
50968;SDS011;36982;51.474;7.228;2023-07-13T12:36:40;4.95;;;2.00;;
50968;SDS011;36982;51.474;7.228;2023-07-13T12:39:15;3.95;;;2.12;;
50968;SDS011;36982;51.474;7.228;2023-07-13T12:41:51;6.25;;;1.83;;
50968;SDS011;36982;51.474;7.228;2023-07-13T12:44:18;4.72;;;2.28;;
50968;SDS011;36982;51.474;7.228;2023-07-13T12:47:03;5.60;;;2.20;;
50968;SDS011;36982;51.474;7.228;2023-07-13T12:49:39;5.53;;;2.00;;
50968;SDS011;36982;51.474;7.228;2023-07-13T12:52:14;5.60;;;1.90;;
50968;SDS011;36982;51.474;7.228;2023-07-13T12:54:41;2.95;;;1.98;;
50968;SDS011;36982;51.474;7.228;2023-07-13T12:57:17;7.30;;;2.42;;
50968;SDS011;36982;51.474;7.228;2023-07-13T12:59:42;5.00;;;2.17;;
50968;SDS011;36982;51.474;7.228;2023-07-13T13:04:59;3.78;;;2.28;;
50968;SDS011;36982;51.474;7.228;2023-07-13T13:07:26;4.20;;;2.00;;
50968;SDS011;36982;51.474;7.228;2023-07-13T13:09:52;5.22;;;2.42;;
50968;SDS011;36982;51.474;7.228;2023-07-13T13:12:21;2.35;;;1.60;;
50968;SDS011;36982;51.474;7.228;2023-07-13T13:14:47;5.03;;;1.65;;
50968;SDS011;36982;51.474;7.228;2023-07-13T13:17:17;6.65;;;2.83;;
50968;SDS011;36982;51.474;7.228;2023-07-13T13:19:55;5.28;;;1.90;;
50968;SDS011;36982;51.474;7.228;2023-07-13T13:22:22;3.92;;;1.80;;
50968;SDS011;36982;51.474;7.228;2023-07-13T13:24:47;4.07;;;1.70;;
50968;SDS011;36982;51.474;7.228;2023-07-13T13:27:20;8.63;;;1.67;;
50968;SDS011;36982;51.474;7.228;2023-07-13T13:29:48;4.37;;;1.77;;
50968;SDS011;36982;51.474;7.228;2023-07-13T13:32:16;5.87;;;1.83;;
50968;SDS011;36982;51.474;7.228;2023-07-13T13:34:44;5.40;;;1.90;;
50968;SDS011;36982;51.474;7.228;2023-07-13T13:37:31;4.95;;;2.42;;
50968;SDS011;36982;51.474;7.228;2023-07-13T13:39:56;4.45;;;2.15;;
50968;SDS011;36982;51.474;7.228;2023-07-13T13:42:21;5.45;;;2.08;;
50968;SDS011;36982;51.474;7.228;2023-07-13T13:44:49;6.15;;;2.40;;
50968;SDS011;36982;51.474;7.228;2023-07-13T13:47:29;9.02;;;2.45;;
50968;SDS011;36982;51.474;7.228;2023-07-13T13:49:57;3.58;;;2.30;;
50968;SDS011;36982;51.474;7.228;2023-07-13T13:52:24;5.53;;;2.50;;
50968;SDS011;36982;51.474;7.228;2023-07-13T13:54:50;7.85;;;3.00;;
50968;SDS011;36982;51.474;7.228;2023-07-13T13:57:20;5.20;;;3.25;;
50968;SDS011;36982;51.474;7.228;2023-07-13T13:59:49;5.97;;;3.08;;
50968;SDS011;36982;51.474;7.228;2023-07-13T14:02:21;6.05;;;3.30;;
50968;SDS011;36982;51.474;7.228;2023-07-13T14:04:56;5.65;;;3.28;;
50968;SDS011;36982;51.474;7.228;2023-07-13T14:07:24;5.18;;;3.00;;
50968;SDS011;36982;51.474;7.228;2023-07-13T14:09:51;5.03;;;3.30;;
50968;SDS011;36982;51.474;7.228;2023-07-13T14:12:22;6.70;;;3.00;;
50968;SDS011;36982;51.474;7.228;2023-07-13T14:14:51;4.60;;;2.90;;
50968;SDS011;36982;51.474;7.228;2023-07-13T14:17:20;6.50;;;3.70;;
50968;SDS011;36982;51.474;7.228;2023-07-13T14:19:49;4.95;;;2.85;;
50968;SDS011;36982;51.474;7.228;2023-07-13T14:22:16;6.00;;;3.17;;
50968;SDS011;36982;51.474;7.228;2023-07-13T14:24:43;4.12;;;2.87;;
50968;SDS011;36982;51.474;7.228;2023-07-13T14:27:09;5.40;;;2.90;;
50968;SDS011;36982;51.474;7.228;2023-07-13T14:29:36;4.97;;;3.12;;
50968;SDS011;36982;51.474;7.228;2023-07-13T14:32:01;3.95;;;3.10;;
50968;SDS011;36982;51.474;7.228;2023-07-13T14:34:27;5.30;;;3.37;;
50968;SDS011;36982;51.474;7.228;2023-07-13T14:36:53;5.65;;;3.45;;
50968;SDS011;36982;51.474;7.228;2023-07-13T14:39:20;6.43;;;3.70;;
50968;SDS011;36982;51.474;7.228;2023-07-13T14:41:49;6.93;;;4.75;;
50968;SDS011;36982;51.474;7.228;2023-07-13T14:44:20;9.35;;;4.32;;
50968;SDS011;36982;51.474;7.228;2023-07-13T14:46:51;9.88;;;4.78;;
50968;SDS011;36982;51.474;7.228;2023-07-13T14:49:30;11.43;;;5.07;;
50968;SDS011;36982;51.474;7.228;2023-07-13T14:52:01;7.87;;;4.20;;
50968;SDS011;36982;51.474;7.228;2023-07-13T14:54:47;7.35;;;4.85;;
50968;SDS011;36982;51.474;7.228;2023-07-13T14:57:14;7.75;;;5.40;;
50968;SDS011;36982;51.474;7.228;2023-07-13T14:59:47;9.98;;;5.18;;
50968;SDS011;36982;51.474;7.228;2023-07-13T15:07:57;7.95;;;4.78;;
50968;SDS011;36982;51.474;7.228;2023-07-13T15:10:29;5.47;;;4.60;;
50968;SDS011;36982;51.474;7.228;2023-07-13T15:12:58;7.65;;;4.53;;
50968;SDS011;36982;51.474;7.228;2023-07-13T15:15:26;6.18;;;3.75;;
50968;SDS011;36982;51.474;7.228;2023-07-13T15:17:53;7.60;;;4.43;;
50968;SDS011;36982;51.474;7.228;2023-07-13T15:22:57;5.68;;;3.80;;
50968;SDS011;36982;51.474;7.228;2023-07-13T15:25:25;5.95;;;3.90;;
50968;SDS011;36982;51.474;7.228;2023-07-13T15:27:53;8.45;;;4.20;;
50968;SDS011;36982;51.474;7.228;2023-07-13T15:30:20;9.25;;;5.45;;
50968;SDS011;36982;51.474;7.228;2023-07-13T15:32:46;6.15;;;4.18;;
50968;SDS011;36982;51.474;7.228;2023-07-13T15:35:14;6.70;;;4.65;;
50968;SDS011;36982;51.474;7.228;2023-07-13T15:37:41;6.37;;;4.07;;
50968;SDS011;36982;51.474;7.228;2023-07-13T15:40:07;6.32;;;3.85;;
50968;SDS011;36982;51.474;7.228;2023-07-13T15:42:33;7.55;;;4.22;;